Elk Bend, Idaho
Current Conditions -  °F | °C
As of 11:15 AM on Thursday 18 Dec 2014 (Local Time) from KSMN Reporting Station
Few Clouds Few Clouds  
Wind Chill: -4°   Ceiling: Unl
Heat Index: -4°   Visibility: 10mi
Dew Point: -8°   Wind: 0mph
Humidity: 74%   Direction: NA
Pressure: 30.12"   Gusts: NA
Location:  45.092°N, 113.703°W
Report Text: KSMN 181815Z AUTO 00000KT 10SM FEW065 FEW100 M04/M08 A3012 RMK AO1
Loading
Personal Weather Stations






























Interactive Weather Map New forecast layout! Learn more

10-Day Weather Forecast

Advertisements
Track Severe Weather on mobile